Austinville, Pennsylvania
Current Conditions -  °F | °C
As of 12:53 PM on Sunday 25 Jan 2015 (Local Time) from KELM Reporting Station
Clear Clear  
Wind Chill: -7°   Ceiling: Unl
Heat Index: -2°   Visibility: 10mi
Dew Point: -11°   Wind: 10mph
Humidity: 51%   Direction: 30°NNE
Pressure: 29.83"   Gusts: NA
Location:  41.8495°N, 76.7925°W
Report Text: KELM 251753Z 03009KT 10SM CLR M02/M11 A2983 RMK AO2 SLP111 T10221111 11006 21033 51007
Loading
Personal Weather Stations






























Interactive Weather Map New forecast layout! Learn more

10-Day Weather Forecast

Advertisements
Track Severe Weather on mobile